sensor_id;sensor_type;location;lat;lon;timestamp;pressure;altitude;pressure_sealevel;temperature;humidity
37778;BME280;23615;51.506;7.678;2023-04-24T00:02:01;98509.28;;;11.21;83.48
37778;BME280;23615;51.506;7.678;2023-04-24T00:04:26;98504.75;;;11.32;83.44
37778;BME280;23615;51.506;7.678;2023-04-24T00:06:52;98503.69;;;11.33;83.01
37778;BME280;23615;51.506;7.678;2023-04-24T00:09:22;98506.91;;;11.35;83.19
37778;BME280;23615;51.506;7.678;2023-04-24T00:11:47;98508.75;;;11.19;83.29
37778;BME280;23615;51.506;7.678;2023-04-24T00:14:12;98509.81;;;11.23;83.67
37778;BME280;23615;51.506;7.678;2023-04-24T00:16:37;98510.91;;;11.33;83.09
37778;BME280;23615;51.506;7.678;2023-04-24T00:19:03;98514.06;;;11.14;83.86
37778;BME280;23615;51.506;7.678;2023-04-24T00:21:28;98518.84;;;11.02;83.70
37778;BME280;23615;51.506;7.678;2023-04-24T00:23:53;98514.06;;;11.09;84.12
37778;BME280;23615;51.506;7.678;2023-04-24T00:26:19;98521.81;;;11.21;83.78
37778;BME280;23615;51.506;7.678;2023-04-24T00:28:44;98517.78;;;11.03;84.15
37778;BME280;23615;51.506;7.678;2023-04-24T00:31:09;98517.00;;;11.08;84.61
37778;BME280;23615;51.506;7.678;2023-04-24T00:33:35;98516.97;;;11.03;84.54
37778;BME280;23615;51.506;7.678;2023-04-24T00:36:00;98516.97;;;11.03;83.68
37778;BME280;23615;51.506;7.678;2023-04-24T00:38:25;98519.94;;;11.11;83.68
37778;BME280;23615;51.506;7.678;2023-04-24T00:40:50;98513.47;;;10.87;83.90
37778;BME280;23615;51.506;7.678;2023-04-24T00:43:16;98519.88;;;10.86;83.70
37778;BME280;23615;51.506;7.678;2023-04-24T00:45:42;98512.66;;;10.86;83.81
37778;BME280;23615;51.506;7.678;2023-04-24T00:48:08;98506.28;;;10.82;83.56
37778;BME280;23615;51.506;7.678;2023-04-24T00:50:36;98506.78;;;10.79;84.28
37778;BME280;23615;51.506;7.678;2023-04-24T00:53:01;98513.50;;;10.92;83.45
37778;BME280;23615;51.506;7.678;2023-04-24T00:55:27;98506.81;;;10.90;83.66
37778;BME280;23615;51.506;7.678;2023-04-24T00:57:52;98502.25;;;10.80;83.80
37778;BME280;23615;51.506;7.678;2023-04-24T01:00:18;98506.28;;;10.87;83.76
37778;BME280;23615;51.506;7.678;2023-04-24T01:02:44;98506.28;;;10.82;83.87
37778;BME280;23615;51.506;7.678;2023-04-24T01:05:12;98496.63;;;10.71;83.92
37778;BME280;23615;51.506;7.678;2023-04-24T01:07:39;98501.66;;;10.63;84.36
37778;BME280;23615;51.506;7.678;2023-04-24T01:10:07;98500.06;;;10.62;84.50
37778;BME280;23615;51.506;7.678;2023-04-24T01:12:32;98510.44;;;10.58;84.90
37778;BME280;23615;51.506;7.678;2023-04-24T01:14:58;98502.78;;;10.82;83.80
37778;BME280;23615;51.506;7.678;2023-04-24T01:17:23;98497.69;;;10.70;83.74
37778;BME280;23615;51.506;7.678;2023-04-24T01:19:49;98493.41;;;10.64;84.44
37778;BME280;23615;51.506;7.678;2023-04-24T01:22:14;98493.66;;;10.68;84.21
37778;BME280;23615;51.506;7.678;2023-04-24T01:24:41;98496.13;;;10.79;83.55
37778;BME280;23615;51.506;7.678;2023-04-24T01:27:07;98498.91;;;10.47;84.11
37778;BME280;23615;51.506;7.678;2023-04-24T01:29:33;98496.34;;;10.68;83.96
37778;BME280;23615;51.506;7.678;2023-04-24T01:31:59;98490.75;;;10.74;83.69
37778;BME280;23615;51.506;7.678;2023-04-24T01:34:25;98498.75;;;10.69;83.58
37778;BME280;23615;51.506;7.678;2023-04-24T01:36:51;98499.53;;;10.65;84.09
37778;BME280;23615;51.506;7.678;2023-04-24T01:39:16;98488.63;;;10.71;83.53
37778;BME280;23615;51.506;7.678;2023-04-24T01:41:42;98492.59;;;10.64;83.63
37778;BME280;23615;51.506;7.678;2023-04-24T01:44:07;98491.00;;;10.68;84.09
37778;BME280;23615;51.506;7.678;2023-04-24T01:46:33;98491.84;;;10.73;84.49
37778;BME280;23615;51.506;7.678;2023-04-24T01:49:00;98492.63;;;10.84;83.91
37778;BME280;23615;51.506;7.678;2023-04-24T01:51:25;98488.38;;;10.73;84.45
37778;BME280;23615;51.506;7.678;2023-04-24T01:53:50;98480.09;;;10.84;83.74
37778;BME280;23615;51.506;7.678;2023-04-24T01:56:16;98482.25;;;10.87;82.80
37778;BME280;23615;51.506;7.678;2023-04-24T01:58:42;98486.25;;;10.80;83.97
37778;BME280;23615;51.506;7.678;2023-04-24T02:01:08;98482.78;;;10.79;83.89
37778;BME280;23615;51.506;7.678;2023-04-24T02:03:33;98480.09;;;10.84;82.84
37778;BME280;23615;51.506;7.678;2023-04-24T02:05:58;98487.63;;;10.98;82.72
37778;BME280;23615;51.506;7.678;2023-04-24T02:08:24;98490.84;;;11.00;82.79
37778;BME280;23615;51.506;7.678;2023-04-24T02:10:50;98491.31;;;10.86;82.64
37778;BME280;23615;51.506;7.678;2023-04-24T02:13:15;98488.41;;;10.83;83.27
37778;BME280;23615;51.506;7.678;2023-04-24T02:15:40;98495.59;;;10.82;82.90
37778;BME280;23615;51.506;7.678;2023-04-24T02:18:06;98491.06;;;10.83;83.78
37778;BME280;23615;51.506;7.678;2023-04-24T02:20:31;98487.63;;;11.03;83.10
37778;BME280;23615;51.506;7.678;2023-04-24T02:22:59;98491.13;;;11.08;82.60
37778;BME280;23615;51.506;7.678;2023-04-24T02:25:24;98497.78;;;11.11;82.92
37778;BME280;23615;51.506;7.678;2023-04-24T02:27:49;98503.13;;;11.06;82.82
37778;BME280;23615;51.506;7.678;2023-04-24T02:30:17;98499.66;;;11.15;81.66
37778;BME280;23615;51.506;7.678;2023-04-24T02:32:43;98508.72;;;11.04;82.20
37778;BME280;23615;51.506;7.678;2023-04-24T02:35:09;98495.63;;;11.03;81.77
37778;BME280;23615;51.506;7.678;2023-04-24T02:37:34;98498.03;;;10.99;81.45
37778;BME280;23615;51.506;7.678;2023-04-24T02:39:59;98500.69;;;10.89;81.25
37778;BME280;23615;51.506;7.678;2023-04-24T02:42:24;98504.16;;;10.95;82.01
37778;BME280;23615;51.506;7.678;2023-04-24T02:44:50;98499.06;;;10.88;81.76
37778;BME280;23615;51.506;7.678;2023-04-24T02:47:16;98508.13;;;10.82;81.83
37778;BME280;23615;51.506;7.678;2023-04-24T02:49:41;98503.34;;;10.89;80.87
37778;BME280;23615;51.506;7.678;2023-04-24T02:52:07;98514.56;;;10.96;81.25
37778;BME280;23615;51.506;7.678;2023-04-24T02:54:32;98509.47;;;10.95;81.25
37778;BME280;23615;51.506;7.678;2023-04-24T02:56:57;98503.81;;;10.76;81.47
37778;BME280;23615;51.506;7.678;2023-04-24T02:59:23;98495.56;;;10.72;82.08
37778;BME280;23615;51.506;7.678;2023-04-24T03:01:48;98496.06;;;10.69;82.39
37778;BME280;23615;51.506;7.678;2023-04-24T03:04:13;98491.00;;;10.63;82.36
37778;BME280;23615;51.506;7.678;2023-04-24T03:06:38;98503.84;;;10.81;82.35
37778;BME280;23615;51.506;7.678;2023-04-24T03:09:04;98504.41;;;10.83;81.54
37778;BME280;23615;51.506;7.678;2023-04-24T03:11:29;98500.31;;;10.60;81.83
37778;BME280;23615;51.506;7.678;2023-04-24T03:13:55;98512.34;;;10.68;81.88
37778;BME280;23615;51.506;7.678;2023-04-24T03:16:20;98514.69;;;10.59;81.83
37778;BME280;23615;51.506;7.678;2023-04-24T03:18:45;98523.69;;;10.43;82.09
37778;BME280;23615;51.506;7.678;2023-04-24T03:21:11;98515.69;;;10.38;82.51
37778;BME280;23615;51.506;7.678;2023-04-24T03:23:36;98525.25;;;10.29;82.91
37778;BME280;23615;51.506;7.678;2023-04-24T03:26:02;98520.91;;;10.18;83.49
37778;BME280;23615;51.506;7.678;2023-04-24T03:28:27;98513.31;;;10.04;83.27
37778;BME280;23615;51.506;7.678;2023-04-24T03:30:52;98526.63;;;9.99;83.74
37778;BME280;23615;51.506;7.678;2023-04-24T03:33:17;98532.94;;;9.93;84.62
37778;BME280;23615;51.506;7.678;2023-04-24T03:35:43;98535.00;;;9.81;85.20
37778;BME280;23615;51.506;7.678;2023-04-24T03:38:08;98533.91;;;9.77;84.56
37778;BME280;23615;51.506;7.678;2023-04-24T03:40:33;98530.06;;;9.63;85.25
37778;BME280;23615;51.506;7.678;2023-04-24T03:42:59;98539.59;;;9.59;85.13
37778;BME280;23615;51.506;7.678;2023-04-24T03:45:24;98536.66;;;9.55;86.05
37778;BME280;23615;51.506;7.678;2023-04-24T03:47:49;98536.44;;;9.62;86.11
37778;BME280;23615;51.506;7.678;2023-04-24T03:50:15;98537.34;;;9.72;85.76
37778;BME280;23615;51.506;7.678;2023-04-24T03:52:40;98544.66;;;9.55;86.30
37778;BME280;23615;51.506;7.678;2023-04-24T03:55:06;98542.56;;;9.62;86.69
37778;BME280;23615;51.506;7.678;2023-04-24T03:57:31;98554.16;;;9.78;85.77
37778;BME280;23615;51.506;7.678;2023-04-24T03:59:57;98551.94;;;9.65;86.36
37778;BME280;23615;51.506;7.678;2023-04-24T04:02:22;98560.78;;;9.75;86.51
37778;BME280;23615;51.506;7.678;2023-04-24T04:04:47;98552.59;;;9.82;86.61
37778;BME280;23615;51.506;7.678;2023-04-24T04:07:13;98547.38;;;9.65;86.63
37778;BME280;23615;51.506;7.678;2023-04-24T04:09:38;98553.78;;;9.64;86.70
37778;BME280;23615;51.506;7.678;2023-04-24T04:12:04;98548.03;;;9.77;87.00
37778;BME280;23615;51.506;7.678;2023-04-24T04:14:29;98553.34;;;9.77;86.85
37778;BME280;23615;51.506;7.678;2023-04-24T04:16:54;98561.25;;;9.67;87.12
37778;BME280;23615;51.506;7.678;2023-04-24T04:19:20;98555.59;;;9.59;87.61
37778;BME280;23615;51.506;7.678;2023-04-24T04:21:45;98550.78;;;9.56;87.32
37778;BME280;23615;51.506;7.678;2023-04-24T04:24:11;98554.38;;;9.71;87.20
37778;BME280;23615;51.506;7.678;2023-04-24T04:26:37;98551.63;;;9.61;87.06
37778;BME280;23615;51.506;7.678;2023-04-24T04:29:03;98548.03;;;9.77;86.81
37778;BME280;23615;51.506;7.678;2023-04-24T04:31:28;98541.88;;;9.72;87.05
37778;BME280;23615;51.506;7.678;2023-04-24T04:33:54;98544.56;;;9.77;86.68
37778;BME280;23615;51.506;7.678;2023-04-24T04:36:19;98542.34;;;9.69;87.10
37778;BME280;23615;51.506;7.678;2023-04-24T04:38:45;98548.16;;;9.61;87.18
37778;BME280;23615;51.506;7.678;2023-04-24T04:41:10;98547.91;;;9.62;87.10
37778;BME280;23615;51.506;7.678;2023-04-24T04:43:36;98556.59;;;9.53;87.56
37778;BME280;23615;51.506;7.678;2023-04-24T04:46:01;98559.59;;;9.61;87.07
37778;BME280;23615;51.506;7.678;2023-04-24T04:48:28;98564.13;;;9.61;87.31
37778;BME280;23615;51.506;7.678;2023-04-24T04:50:53;98559.06;;;9.59;87.45
37778;BME280;23615;51.506;7.678;2023-04-24T04:53:19;98561.09;;;9.79;86.32
37778;BME280;23615;51.506;7.678;2023-04-24T04:55:44;98562.75;;;9.58;86.53
37778;BME280;23615;51.506;7.678;2023-04-24T04:58:11;98568.50;;;9.72;86.87
37778;BME280;23615;51.506;7.678;2023-04-24T05:00:36;98562.84;;;9.68;86.30
37778;BME280;23615;51.506;7.678;2023-04-24T05:03:02;98573.25;;;9.70;86.36
37778;BME280;23615;51.506;7.678;2023-04-24T05:05:28;98569.56;;;9.76;87.43
37778;BME280;23615;51.506;7.678;2023-04-24T05:07:53;98561.31;;;9.72;86.71
37778;BME280;23615;51.506;7.678;2023-04-24T05:10:19;98564.09;;;9.88;86.83
37778;BME280;23615;51.506;7.678;2023-04-24T05:12:44;98568.06;;;9.85;86.41
37778;BME280;23615;51.506;7.678;2023-04-24T05:15:09;98570.59;;;9.70;86.35
37778;BME280;23615;51.506;7.678;2023-04-24T05:17:35;98572.22;;;9.71;87.04
37778;BME280;23615;51.506;7.678;2023-04-24T05:20:02;98569.75;;;9.64;86.87
37778;BME280;23615;51.506;7.678;2023-04-24T05:22:30;98576.97;;;9.69;86.69
37778;BME280;23615;51.506;7.678;2023-04-24T05:24:55;98566.31;;;9.69;86.71
37778;BME280;23615;51.506;7.678;2023-04-24T05:27:21;98572.38;;;9.59;87.01
37778;BME280;23615;51.506;7.678;2023-04-24T05:29:46;98567.63;;;9.66;86.92
37778;BME280;23615;51.506;7.678;2023-04-24T05:32:11;98567.63;;;9.66;87.16
37778;BME280;23615;51.506;7.678;2023-04-24T05:34:37;98571.16;;;9.72;86.43
37778;BME280;23615;51.506;7.678;2023-04-24T05:37:02;98566.91;;;9.76;86.09
37778;BME280;23615;51.506;7.678;2023-04-24T05:39:28;98567.22;;;9.80;85.85
37778;BME280;23615;51.506;7.678;2023-04-24T05:41:53;98573.09;;;9.82;86.09
37778;BME280;23615;51.506;7.678;2023-04-24T05:44:18;98576.66;;;9.65;87.26
37778;BME280;23615;51.506;7.678;2023-04-24T05:46:44;98571.25;;;9.82;86.66
37778;BME280;23615;51.506;7.678;2023-04-24T05:49:09;98579.25;;;9.87;85.96
37778;BME280;23615;51.506;7.678;2023-04-24T05:51:34;98589.50;;;10.00;84.80
37778;BME280;23615;51.506;7.678;2023-04-24T05:54:00;98576.72;;;10.02;84.63
37778;BME280;23615;51.506;7.678;2023-04-24T05:56:26;98587.50;;;9.86;86.33
37778;BME280;23615;51.506;7.678;2023-04-24T05:58:51;98589.38;;;9.85;85.81
37778;BME280;23615;51.506;7.678;2023-04-24T06:01:17;98587.00;;;9.89;85.64
37778;BME280;23615;51.506;7.678;2023-04-24T06:03:43;98582.19;;;9.86;85.70
37778;BME280;23615;51.506;7.678;2023-04-24T06:06:08;98587.31;;;9.92;85.62
37778;BME280;23615;51.506;7.678;2023-04-24T06:08:34;98590.13;;;9.81;85.04
37778;BME280;23615;51.506;7.678;2023-04-24T06:11:00;98594.44;;;9.87;85.19
37778;BME280;23615;51.506;7.678;2023-04-24T06:13:25;98593.88;;;9.85;85.76
37778;BME280;23615;51.506;7.678;2023-04-24T06:15:52;98586.34;;;9.71;85.88
37778;BME280;23615;51.506;7.678;2023-04-24T06:18:18;98592.13;;;9.63;87.40
37778;BME280;23615;51.506;7.678;2023-04-24T06:20:44;98581.75;;;9.40;88.57
37778;BME280;23615;51.506;7.678;2023-04-24T06:23:10;98586.84;;;9.42;87.42
37778;BME280;23615;51.506;7.678;2023-04-24T06:25:35;98598.50;;;9.62;88.15
37778;BME280;23615;51.506;7.678;2023-04-24T06:28:01;98598.16;;;9.54;88.34
37778;BME280;23615;51.506;7.678;2023-04-24T06:30:27;98593.72;;;9.64;88.90
37778;BME280;23615;51.506;7.678;2023-04-24T06:32:53;98592.41;;;9.67;88.19
37778;BME280;23615;51.506;7.678;2023-04-24T06:35:18;98593.41;;;9.61;87.81
37778;BME280;23615;51.506;7.678;2023-04-24T06:37:44;98599.09;;;9.69;88.17
37778;BME280;23615;51.506;7.678;2023-04-24T06:40:09;98598.47;;;9.89;87.17
37778;BME280;23615;51.506;7.678;2023-04-24T06:42:35;98603.28;;;9.92;85.91
37778;BME280;23615;51.506;7.678;2023-04-24T06:45:01;98600.66;;;9.97;86.13
37778;BME280;23615;51.506;7.678;2023-04-24T06:47:27;98604.00;;;9.83;86.53
37778;BME280;23615;51.506;7.678;2023-04-24T06:49:52;98600.47;;;9.77;86.19
37778;BME280;23615;51.506;7.678;2023-04-24T06:52:18;98601.41;;;9.61;86.64
37778;BME280;23615;51.506;7.678;2023-04-24T06:54:44;98597.19;;;9.65;87.40
37778;BME280;23615;51.506;7.678;2023-04-24T06:57:09;98604.09;;;9.66;86.60
37778;BME280;23615;51.506;7.678;2023-04-24T06:59:35;98601.38;;;9.56;87.12
37778;BME280;23615;51.506;7.678;2023-04-24T07:02:00;98612.63;;;9.63;87.29
37778;BME280;23615;51.506;7.678;2023-04-24T07:04:26;98600.03;;;9.58;87.32
37778;BME280;23615;51.506;7.678;2023-04-24T07:06:51;98593.31;;;9.51;87.24
37778;BME280;23615;51.506;7.678;2023-04-24T07:09:19;98600.63;;;9.65;87.30
37778;BME280;23615;51.506;7.678;2023-04-24T07:11:45;98599.66;;;9.71;87.11
37778;BME280;23615;51.506;7.678;2023-04-24T07:14:11;98593.44;;;9.66;87.05
37778;BME280;23615;51.506;7.678;2023-04-24T07:16:37;98576.16;;;9.68;88.85
37778;BME280;23615;51.506;7.678;2023-04-24T07:19:02;98593.03;;;9.74;90.05
37778;BME280;23615;51.506;7.678;2023-04-24T07:21:27;98596.75;;;9.78;89.88
37778;BME280;23615;51.506;7.678;2023-04-24T07:23:53;98598.88;;;9.76;91.10
37778;BME280;23615;51.506;7.678;2023-04-24T07:26:18;98596.06;;;9.61;90.84
37778;BME280;23615;51.506;7.678;2023-04-24T07:28:44;98599.09;;;9.43;92.84
37778;BME280;23615;51.506;7.678;2023-04-24T07:31:11;98605.88;;;9.55;92.63
37778;BME280;23615;51.506;7.678;2023-04-24T07:33:36;98594.47;;;9.60;93.19
37778;BME280;23615;51.506;7.678;2023-04-24T07:36:02;98608.00;;;9.53;92.43
37778;BME280;23615;51.506;7.678;2023-04-24T07:38:29;98605.63;;;9.57;92.47
37778;BME280;23615;51.506;7.678;2023-04-24T07:40:55;98603.94;;;9.77;92.79
37778;BME280;23615;51.506;7.678;2023-04-24T07:43:20;98609.06;;;9.84;92.47
37778;BME280;23615;51.506;7.678;2023-04-24T07:45:46;98607.00;;;9.91;92.83
37778;BME280;23615;51.506;7.678;2023-04-24T07:48:12;98609.25;;;10.04;92.47
37778;BME280;23615;51.506;7.678;2023-04-24T07:50:40;98607.63;;;10.03;92.23
37778;BME280;23615;51.506;7.678;2023-04-24T07:53:05;98610.34;;;10.08;91.53
37778;BME280;23615;51.506;7.678;2023-04-24T07:55:33;98617.75;;;10.01;90.37
37778;BME280;23615;51.506;7.678;2023-04-24T07:57:58;98615.88;;;9.70;91.08
37778;BME280;23615;51.506;7.678;2023-04-24T08:00:24;98624.44;;;9.77;91.15
37778;BME280;23615;51.506;7.678;2023-04-24T08:02:49;98629.22;;;9.75;91.55
37778;BME280;23615;51.506;7.678;2023-04-24T08:05:14;98619.56;;;9.64;90.62
37778;BME280;23615;51.506;7.678;2023-04-24T08:07:40;98613.00;;;9.50;91.06
37778;BME280;23615;51.506;7.678;2023-04-24T08:10:09;98621.31;;;9.53;90.93
37778;BME280;23615;51.506;7.678;2023-04-24T08:12:35;98618.09;;;9.51;91.25
37778;BME280;23615;51.506;7.678;2023-04-24T08:15:00;98617.72;;;9.43;91.85
37778;BME280;23615;51.506;7.678;2023-04-24T08:17:25;98623.66;;;9.50;90.59
37778;BME280;23615;51.506;7.678;2023-04-24T08:19:50;98622.00;;;9.44;91.90
37778;BME280;23615;51.506;7.678;2023-04-24T08:22:18;98619.94;;;9.51;92.29
37778;BME280;23615;51.506;7.678;2023-04-24T08:24:43;98619.84;;;9.41;92.22
37778;BME280;23615;51.506;7.678;2023-04-24T08:27:09;98631.97;;;9.31;92.24
37778;BME280;23615;51.506;7.678;2023-04-24T08:29:35;98622.13;;;9.32;92.46
37778;BME280;23615;51.506;7.678;2023-04-24T08:32:00;98630.19;;;9.37;91.30
37778;BME280;23615;51.506;7.678;2023-04-24T08:34:26;98633.25;;;9.51;91.72
37778;BME280;23615;51.506;7.678;2023-04-24T08:36:51;98641.78;;;9.53;90.92
37778;BME280;23615;51.506;7.678;2023-04-24T08:39:17;98638.09;;;9.54;90.19
37778;BME280;23615;51.506;7.678;2023-04-24T08:41:43;98635.41;;;9.54;90.39
37778;BME280;23615;51.506;7.678;2023-04-24T08:44:09;98642.81;;;9.47;90.33
37778;BME280;23615;51.506;7.678;2023-04-24T08:46:35;98645.59;;;9.35;90.42
37778;BME280;23615;51.506;7.678;2023-04-24T08:49:02;98647.91;;;9.26;90.86
37778;BME280;23615;51.506;7.678;2023-04-24T08:51:27;98655.38;;;9.08;90.64
37778;BME280;23615;51.506;7.678;2023-04-24T08:53:53;98663.97;;;8.93;92.18
37778;BME280;23615;51.506;7.678;2023-04-24T08:56:21;98671.44;;;8.96;92.71
37778;BME280;23615;51.506;7.678;2023-04-24T08:58:49;98674.81;;;9.08;93.09
37778;BME280;23615;51.506;7.678;2023-04-24T09:01:15;98673.50;;;9.11;93.55
37778;BME280;23615;51.506;7.678;2023-04-24T09:03:41;98681.47;;;9.11;93.16
37778;BME280;23615;51.506;7.678;2023-04-24T09:06:08;98672.25;;;8.96;93.36
37778;BME280;23615;51.506;7.678;2023-04-24T09:08:35;98677.91;;;9.00;94.27
37778;BME280;23615;51.506;7.678;2023-04-24T09:11:01;98677.59;;;8.96;94.27
37778;BME280;23615;51.506;7.678;2023-04-24T09:13:28;98687.84;;;8.88;93.19
37778;BME280;23615;51.506;7.678;2023-04-24T09:15:55;98690.59;;;8.76;92.44
37778;BME280;23615;51.506;7.678;2023-04-24T09:18:22;98695.28;;;8.69;93.69
37778;BME280;23615;51.506;7.678;2023-04-24T09:20:59;98688.31;;;8.46;94.02
37778;BME280;23615;51.506;7.678;2023-04-24T09:23:31;98696.81;;;8.48;94.41
37778;BME280;23615;51.506;7.678;2023-04-24T09:25:59;98687.22;;;8.47;95.14
37778;BME280;23615;51.506;7.678;2023-04-24T09:28:27;98697.38;;;8.50;96.06
37778;BME280;23615;51.506;7.678;2023-04-24T09:31:19;98701.09;;;8.49;96.40
37778;BME280;23615;51.506;7.678;2023-04-24T09:34:05;98705.59;;;8.49;96.65
37778;BME280;23615;51.506;7.678;2023-04-24T09:36:38;98711.31;;;8.41;96.83
37778;BME280;23615;51.506;7.678;2023-04-24T09:39:05;98710.28;;;8.42;97.62
37778;BME280;23615;51.506;7.678;2023-04-24T09:41:32;98712.88;;;8.37;98.11
37778;BME280;23615;51.506;7.678;2023-04-24T09:44:11;98717.03;;;8.33;98.65
37778;BME280;23615;51.506;7.678;2023-04-24T09:46:37;98716.38;;;8.25;99.03
37778;BME280;23615;51.506;7.678;2023-04-24T09:49:10;98722.34;;;8.33;99.51
37778;BME280;23615;51.506;7.678;2023-04-24T09:51:37;98739.69;;;8.52;99.88
37778;BME280;23615;51.506;7.678;2023-04-24T09:54:24;98745.88;;;8.57;98.84
37778;BME280;23615;51.506;7.678;2023-04-24T09:56:50;98747.81;;;8.62;99.66
37778;BME280;23615;51.506;7.678;2023-04-24T09:59:17;98761.34;;;8.60;100.00
37778;BME280;23615;51.506;7.678;2023-04-24T10:01:43;98758.94;;;8.42;100.00
37778;BME280;23615;51.506;7.678;2023-04-24T10:04:20;98764.25;;;8.42;100.00
37778;BME280;23615;51.506;7.678;2023-04-24T10:06:47;98769.09;;;8.45;100.00
37778;BME280;23615;51.506;7.678;2023-04-24T10:09:14;98784.28;;;8.33;100.00
37778;BME280;23615;51.506;7.678;2023-04-24T10:11:45;98784.69;;;8.42;100.00
37778;BME280;23615;51.506;7.678;2023-04-24T10:14:15;98791.00;;;8.52;100.00
37778;BME280;23615;51.506;7.678;2023-04-24T10:16:43;98798.41;;;8.50;100.00
37778;BME280;23615;51.506;7.678;2023-04-24T10:19:09;98807.50;;;8.54;100.00
37778;BME280;23615;51.506;7.678;2023-04-24T10:21:36;98800.88;;;8.57;100.00
37778;BME280;23615;51.506;7.678;2023-04-24T10:24:07;98811.06;;;8.60;100.00
37778;BME280;23615;51.506;7.678;2023-04-24T10:26:34;98813.47;;;8.61;100.00
37778;BME280;23615;51.506;7.678;2023-04-24T10:29:00;98823.94;;;8.68;100.00
37778;BME280;23615;51.506;7.678;2023-04-24T10:31:27;98822.56;;;8.66;100.00
37778;BME280;23615;51.506;7.678;2023-04-24T10:33:56;98846.75;;;8.64;100.00
37778;BME280;23615;51.506;7.678;2023-04-24T10:36:23;98850.13;;;8.59;100.00
37778;BME280;23615;51.506;7.678;2023-04-24T10:38:52;98863.97;;;8.45;100.00
37778;BME280;23615;51.506;7.678;2023-04-24T10:41:20;98890.56;;;8.21;100.00
37778;BME280;23615;51.506;7.678;2023-04-24T10:43:52;98882.13;;;8.24;100.00
37778;BME280;23615;51.506;7.678;2023-04-24T10:46:29;98883.19;;;8.23;100.00
37778;BME280;23615;51.506;7.678;2023-04-24T10:48:55;98913.94;;;8.08;99.43
37778;BME280;23615;51.506;7.678;2023-04-24T10:51:24;98913.84;;;8.03;100.00
37778;BME280;23615;51.506;7.678;2023-04-24T10:57:31;98940.84;;;8.11;100.00
37778;BME280;23615;51.506;7.678;2023-04-24T11:00:15;98937.94;;;8.24;100.00
37778;BME280;23615;51.506;7.678;2023-04-24T11:02:41;98942.00;;;8.15;100.00
37778;BME280;23615;51.506;7.678;2023-04-24T11:05:15;98949.84;;;8.22;100.00
37778;BME280;23615;51.506;7.678;2023-04-24T11:08:10;98949.75;;;8.17;100.00
37778;BME280;23615;51.506;7.678;2023-04-24T11:10:46;98960.47;;;8.22;100.00
37778;BME280;23615;51.506;7.678;2023-04-24T11:13:21;98948.44;;;8.19;100.00
37778;BME280;23615;51.506;7.678;2023-04-24T11:18:52;98960.81;;;8.37;100.00
37778;BME280;23615;51.506;7.678;2023-04-24T11:21:22;98965.41;;;8.30;100.00
37778;BME280;23615;51.506;7.678;2023-04-24T11:23:47;98972.22;;;8.38;100.00
37778;BME280;23615;51.506;7.678;2023-04-24T11:26:17;98976.06;;;8.42;100.00
37778;BME280;23615;51.506;7.678;2023-04-24T11:28:50;98980.69;;;8.35;100.00
37778;BME280;23615;51.506;7.678;2023-04-24T11:31:37;98989.47;;;8.35;100.00
37778;BME280;23615;51.506;7.678;2023-04-24T11:34:09;98994.09;;;8.28;100.00
37778;BME280;23615;51.506;7.678;2023-04-24T11:36:36;98991.31;;;8.23;100.00
37778;BME280;23615;51.506;7.678;2023-04-24T11:39:01;98993.50;;;8.26;100.00
37778;BME280;23615;51.506;7.678;2023-04-24T11:41:28;98998.72;;;8.33;100.00
37778;BME280;23615;51.506;7.678;2023-04-24T11:43:53;98996.16;;;8.38;100.00
37778;BME280;23615;51.506;7.678;2023-04-24T11:46:21;98996.28;;;8.31;100.00
37778;BME280;23615;51.506;7.678;2023-04-24T11:48:46;99014.06;;;8.31;100.00
37778;BME280;23615;51.506;7.678;2023-04-24T11:51:12;99019.53;;;8.36;100.00
37778;BME280;23615;51.506;7.678;2023-04-24T11:53:38;99020.34;;;8.36;100.00
37778;BME280;23615;51.506;7.678;2023-04-24T11:56:04;99018.34;;;8.20;100.00
37778;BME280;23615;51.506;7.678;2023-04-24T11:58:40;99028.31;;;8.36;100.00
37778;BME280;23615;51.506;7.678;2023-04-24T12:01:05;99024.69;;;8.42;100.00
37778;BME280;23615;51.506;7.678;2023-04-24T12:03:31;99036.00;;;8.49;100.00
37778;BME280;23615;51.506;7.678;2023-04-24T12:06:07;99047.22;;;8.51;100.00
37778;BME280;23615;51.506;7.678;2023-04-24T12:08:35;99036.88;;;8.67;100.00
37778;BME280;23615;51.506;7.678;2023-04-24T12:11:02;99040.78;;;8.76;100.00
37778;BME280;23615;51.506;7.678;2023-04-24T12:13:28;99041.03;;;8.74;100.00
37778;BME280;23615;51.506;7.678;2023-04-24T12:15:54;99044.28;;;8.76;100.00
37778;BME280;23615;51.506;7.678;2023-04-24T12:18:22;99038.84;;;8.83;100.00
37778;BME280;23615;51.506;7.678;2023-04-24T12:20:48;99037.25;;;8.70;99.87
37778;BME280;23615;51.506;7.678;2023-04-24T12:23:14;99036.19;;;8.71;100.00
37778;BME280;23615;51.506;7.678;2023-04-24T12:25:39;99045.78;;;8.72;100.00
37778;BME280;23615;51.506;7.678;2023-04-24T12:30:32;99051.63;;;8.86;100.00
37778;BME280;23615;51.506;7.678;2023-04-24T12:32:59;99052.81;;;8.78;100.00
37778;BME280;23615;51.506;7.678;2023-04-24T12:35:27;99059.56;;;8.69;99.77
37778;BME280;23615;51.506;7.678;2023-04-24T12:37:53;99065.00;;;8.62;98.73
37778;BME280;23615;51.506;7.678;2023-04-24T12:40:21;99071.25;;;8.56;98.37
37778;BME280;23615;51.506;7.678;2023-04-24T12:42:48;99069.06;;;8.42;97.35
37778;BME280;23615;51.506;7.678;2023-04-24T12:45:15;99081.69;;;8.46;98.40
37778;BME280;23615;51.506;7.678;2023-04-24T12:47:41;99083.03;;;8.60;98.87
37778;BME280;23615;51.506;7.678;2023-04-24T12:50:09;99088.22;;;8.67;98.02
37778;BME280;23615;51.506;7.678;2023-04-24T12:52:35;99095.81;;;8.87;98.81
37778;BME280;23615;51.506;7.678;2023-04-24T12:55:00;99093.38;;;8.97;98.26
37778;BME280;23615;51.506;7.678;2023-04-24T12:57:28;99089.16;;;9.13;97.02
37778;BME280;23615;51.506;7.678;2023-04-24T12:59:54;99089.06;;;9.36;94.95
37778;BME280;23615;51.506;7.678;2023-04-24T13:02:21;99090.06;;;9.47;95.26
37778;BME280;23615;51.506;7.678;2023-04-24T13:04:48;99094.81;;;9.45;94.74
37778;BME280;23615;51.506;7.678;2023-04-24T13:07:13;99096.63;;;9.56;96.05
37778;BME280;23615;51.506;7.678;2023-04-24T13:09:40;99098.94;;;9.52;93.87
37778;BME280;23615;51.506;7.678;2023-04-24T13:12:05;99102.50;;;9.58;93.33